Time;durP1;ratioP1;P1;durP2;ratioP2;P2;SDS_P1;SDS_P2;PMS_P1;PMS_P2;Temp;Humidity;BMP_temperature;BMP_pressure;BME280_temperature;BME280_humidity;BME280_pressure;Samples;Min_cycle;Max_cycle;Signal;HPM_P1;HPM_P2
2021/11/06 00:01:41;;;;;;;1.53;1.53;;;;;;;7.32;100.00;101526.16;5045221;28;20504;-50
2021/11/06 00:04:07;;;;;;;0.30;0.20;;;;;;;7.29;100.00;101530.53;5033747;28;20451;-49
2021/11/06 00:06:34;;;;;;;1.33;1.23;;;;;;;7.31;100.00;101523.50;5045089;28;20494;-49
2021/11/06 00:09:01;;;;;;;0.30;0.20;;;;;;;7.21;100.00;101525.19;5039712;28;20474;-49
2021/11/06 00:11:28;;;;;;;0.30;0.20;;;;;;;7.26;100.00;101527.84;5038330;28;20585;-50
2021/11/06 00:13:54;;;;;;;0.30;0.20;;;;;;;7.27;100.00;101533.19;5036513;28;20445;-49
2021/11/06 00:16:21;;;;;;;0.30;0.20;;;;;;;7.24;100.00;101532.25;5027405;28;20854;-49
2021/11/06 00:18:48;;;;;;;0.30;0.20;;;;;;;7.31;100.00;101526.16;5047888;28;20816;-49
2021/11/06 00:21:14;;;;;;;0.30;0.20;;;;;;;7.36;100.00;101538.50;5038223;28;20482;-50
2021/11/06 00:23:41;;;;;;;0.30;0.20;;;;;;;7.42;100.00;101535.91;5044263;28;20448;-50
2021/11/06 00:26:07;;;;;;;0.30;0.17;;;;;;;7.48;100.00;101539.44;5042114;28;20522;-49
2021/11/06 00:28:34;;;;;;;0.50;0.50;;;;;;;7.49;100.00;101543.84;5043838;28;20491;-49
2021/11/06 00:31:00;;;;;;;0.30;0.30;;;;;;;7.54;100.00;101537.72;5043464;28;20502;-49
2021/11/06 00:33:27;;;;;;;0.30;0.20;;;;;;;7.63;100.00;101540.38;5043625;28;20455;-49
2021/11/06 00:35:54;;;;;;;0.30;0.20;;;;;;;7.53;100.00;101541.22;5038303;28;20455;-49
2021/11/06 00:38:20;;;;;;;0.30;0.20;;;;;;;7.52;100.00;101541.22;5043416;28;20598;-50
2021/11/06 00:40:47;;;;;;;0.30;0.20;;;;;;;7.53;100.00;101542.97;5045129;28;20802;-49
2021/11/06 00:43:13;;;;;;;0.30;0.20;;;;;;;7.52;100.00;101538.56;5039607;28;20533;-50
2021/11/06 00:45:40;;;;;;;1.53;1.43;;;;;;;7.51;100.00;101535.03;5033361;28;20553;-49
2021/11/06 00:48:07;;;;;;;0.30;0.20;;;;;;;7.48;100.00;101539.44;5046990;28;20917;-50
2021/11/06 00:50:34;;;;;;;0.40;0.40;;;;;;;7.52;100.00;101541.22;5048739;28;20450;-49
2021/11/06 00:53:01;;;;;;;0.30;0.20;;;;;;;7.45;100.00;101527.09;5044223;28;20932;-49
2021/11/06 00:55:27;;;;;;;0.30;0.30;;;;;;;7.48;100.00;101524.44;5041662;28;20443;-50
2021/11/06 00:57:54;;;;;;;0.33;0.27;;;;;;;7.47;100.00;101525.31;5046080;28;20475;-50
2021/11/06 01:00:21;;;;;;;0.30;0.20;;;;;;;7.47;100.00;101535.03;5037336;28;20502;-49
2021/11/06 01:02:49;;;;;;;0.30;0.20;;;;;;;7.49;100.00;101530.63;5046350;28;20447;-49
2021/11/06 01:05:16;;;;;;;0.30;0.20;;;;;;;7.50;100.00;101540.31;5048949;28;20554;-49
2021/11/06 01:07:44;;;;;;;0.30;0.20;;;;;;;7.51;100.00;101535.03;5045733;28;20546;-50
2021/11/06 01:10:13;;;;;;;0.60;0.60;;;;;;;7.61;100.00;101528.91;5047298;28;20466;-51
2021/11/06 01:12:41;;;;;;;0.30;0.20;;;;;;;7.67;100.00;101543.91;5042589;28;20456;-49
2021/11/06 01:15:10;;;;;;;2.10;1.17;;;;;;;7.65;100.00;101535.97;5044013;28;20821;-50
2021/11/06 01:17:37;;;;;;;0.30;0.30;;;;;;;7.56;100.00;101538.59;5044075;28;20518;-50
2021/11/06 01:20:05;;;;;;;0.30;0.20;;;;;;;7.54;100.00;101529.78;5023479;28;20444;-50
2021/11/06 01:22:32;;;;;;;0.30;0.20;;;;;;;7.56;100.00;101530.66;5046617;28;20508;-50
2021/11/06 01:24:59;;;;;;;0.30;0.20;;;;;;;7.59;100.00;101535.06;5041135;28;20524;-49
2021/11/06 01:27:25;;;;;;;0.30;0.20;;;;;;;7.55;100.00;101541.25;5042048;28;20452;-49
2021/11/06 01:29:52;;;;;;;0.30;0.20;;;;;;;7.49;100.00;101533.25;5048033;28;20464;-49
2021/11/06 01:32:19;;;;;;;0.30;0.20;;;;;;;7.53;100.00;101527.97;5047327;28;20850;-50
2021/11/06 01:34:46;;;;;;;0.50;0.50;;;;;;;7.53;100.00;101532.38;5040491;28;20520;-49
2021/11/06 01:37:13;;;;;;;0.30;0.20;;;;;;;7.58;100.00;101533.31;5034752;28;20467;-50
2021/11/06 01:39:39;;;;;;;0.30;0.20;;;;;;;7.47;100.00;101533.25;5047592;28;20888;-49
2021/11/06 01:42:06;;;;;;;0.30;0.20;;;;;;;7.53;100.00;101540.31;5047324;28;20512;-49
2021/11/06 01:44:33;;;;;;;0.30;0.20;;;;;;;7.46;100.00;101542.06;5041247;28;20447;-49
2021/11/06 01:47:00;;;;;;;0.57;0.57;;;;;;;7.46;100.00;101530.63;5049147;28;20483;-51
2021/11/06 01:49:27;;;;;;;0.30;0.20;;;;;;;7.46;100.00;101533.25;5041339;28;20471;-49
2021/11/06 01:51:54;;;;;;;0.30;0.20;;;;;;;7.56;100.00;101527.13;5040410;28;20484;-49
2021/11/06 01:54:23;;;;;;;0.30;0.20;;;;;;;7.60;100.00;101534.19;5038799;28;20457;-49
2021/11/06 01:56:51;;;;;;;0.30;0.20;;;;;;;7.60;100.00;101528.91;5047153;28;20502;-49
2021/11/06 01:59:19;;;;;;;0.30;0.20;;;;;;;7.53;100.00;101527.97;5042115;28;20998;-49
2021/11/06 02:01:46;;;;;;;0.30;0.20;;;;;;;7.53;100.00;101540.31;5040515;28;20459;-50
2021/11/06 02:04:13;;;;;;;0.30;0.20;;;;;;;7.56;100.00;101532.44;5045570;28;20979;-49
2021/11/06 02:06:40;;;;;;;0.80;0.77;;;;;;;7.63;100.00;101528.91;5038844;28;20519;-49
2021/11/06 02:09:07;;;;;;;0.30;0.20;;;;;;;7.56;100.00;101529.78;5033618;28;20541;-50
2021/11/06 02:11:35;;;;;;;0.30;0.20;;;;;;;7.62;100.00;101528.03;5035793;28;20561;-49
2021/11/06 02:14:03;;;;;;;0.30;0.20;;;;;;;7.68;100.00;101529.81;5044760;28;20448;-49
2021/11/06 02:16:31;;;;;;;0.30;0.20;;;;;;;7.61;100.00;101525.38;5045632;28;20957;-49
2021/11/06 02:18:58;;;;;;;1.67;1.67;;;;;;;7.65;100.00;101524.50;5044517;28;21050;-49
2021/11/06 02:21:25;;;;;;;0.30;0.20;;;;;;;7.66;100.00;101521.84;5047340;28;20485;-50
2021/11/06 02:23:52;;;;;;;0.30;0.20;;;;;;;7.57;100.00;101523.59;5032075;28;20852;-50
2021/11/06 02:26:21;;;;;;;0.30;0.20;;;;;;;7.59;100.00;101524.50;5046736;28;20523;-50
2021/11/06 02:29:07;;;;;;;0.30;0.20;;;;;;;7.51;100.00;101526.22;5046272;28;21057;-50
2021/11/06 02:31:34;;;;;;;0.77;0.77;;;;;;;7.50;100.00;101535.03;5039688;28;20477;-50
2021/11/06 02:34:00;;;;;;;0.30;0.20;;;;;;;7.51;100.00;101531.50;5040571;28;20744;-49
2021/11/06 02:36:27;;;;;;;0.30;0.20;;;;;;;7.50;100.00;101527.09;5040312;28;20494;-49
2021/11/06 02:38:54;;;;;;;0.30;0.20;;;;;;;7.50;100.00;101527.09;5033704;28;20526;-50
2021/11/06 02:41:21;;;;;;;0.30;0.20;;;;;;;7.31;100.00;101528.78;5046983;28;20452;-50
2021/11/06 02:43:47;;;;;;;0.30;0.20;;;;;;;7.19;100.00;101526.97;5046794;28;20451;-49
2021/11/06 02:46:14;;;;;;;0.30;0.20;;;;;;;7.16;100.00;101531.34;5026505;28;20548;-49
2021/11/06 02:48:41;;;;;;;0.70;0.70;;;;;;;6.87;100.00;101531.19;5039873;28;20950;-49
2021/11/06 02:51:07;;;;;;;0.30;0.20;;;;;;;6.92;100.00;101529.44;5048833;28;20968;-49
2021/11/06 02:53:34;;;;;;;0.30;0.20;;;;;;;6.87;100.00;101531.19;5039772;28;20452;-50
2021/11/06 02:56:01;;;;;;;0.30;0.20;;;;;;;6.78;100.00;101524.94;5021264;28;20494;-49
2021/11/06 02:58:29;;;;;;;0.30;0.20;;;;;;;6.77;100.00;101522.31;5036201;28;20506;-50
2021/11/06 03:00:56;;;;;;;0.30;0.20;;;;;;;6.67;100.00;101524.00;5045464;28;20447;-50
2021/11/06 03:03:23;;;;;;;0.30;0.20;;;;;;;6.68;100.00;101524.88;5046469;28;20538;-49
2021/11/06 03:05:50;;;;;;;0.30;0.20;;;;;;;6.43;100.00;101529.06;5040010;28;21061;-49
2021/11/06 03:08:16;;;;;;;0.30;0.20;;;;;;;6.37;100.00;101532.56;5038999;28;20467;-49
2021/11/06 03:10:43;;;;;;;0.30;0.20;;;;;;;6.34;100.00;101532.53;5043898;28;20471;-50
2021/11/06 03:13:10;;;;;;;0.30;0.20;;;;;;;6.40;100.00;101529.94;5045976;28;20876;-50
2021/11/06 03:15:37;;;;;;;0.30;0.20;;;;;;;6.13;100.00;101530.56;5041661;28;20486;-50
2021/11/06 03:18:04;;;;;;;0.30;0.20;;;;;;;5.94;100.00;101529.53;5046591;28;20471;-49
2021/11/06 03:20:32;;;;;;;0.30;0.20;;;;;;;5.89;100.00;101536.47;5041838;28;20501;-49
2021/11/06 03:22:59;;;;;;;0.30;0.20;;;;;;;5.87;100.00;101538.19;5039421;28;20497;-50
2021/11/06 03:25:27;;;;;;;0.30;0.20;;;;;;;5.80;100.00;101538.13;5042215;28;20448;-49
2021/11/06 03:27:53;;;;;;;0.30;0.20;;;;;;;5.71;100.00;101540.66;5046299;28;20534;-49
2021/11/06 03:30:20;;;;;;;0.30;0.20;;;;;;;5.61;100.00;101545.81;5042853;28;20956;-50
2021/11/06 03:32:47;;;;;;;0.30;0.20;;;;;;;5.54;100.00;101541.34;5038543;28;20489;-50
2021/11/06 03:35:15;;;;;;;0.30;0.20;;;;;;;5.49;100.00;101543.06;5041753;28;20451;-49
2021/11/06 03:37:42;;;;;;;0.40;0.40;;;;;;;5.52;100.00;101543.09;5045772;28;20518;-49
2021/11/06 03:40:11;;;;;;;0.40;0.40;;;;;;;5.32;100.00;101550.72;5042710;28;20952;-50
2021/11/06 03:42:39;;;;;;;0.30;0.20;;;;;;;5.28;100.00;101542.75;5038719;28;20943;-49
2021/11/06 03:45:07;;;;;;;0.30;0.20;;;;;;;5.11;100.00;101545.19;5041074;28;20502;-49
2021/11/06 03:47:34;;;;;;;0.30;0.20;;;;;;;5.11;100.00;101547.81;5037132;28;20518;-49
2021/11/06 03:50:06;;;;;;;0.30;0.20;;;;;;;5.14;100.00;101546.97;5040235;28;20451;-49
2021/11/06 03:52:33;;;;;;;0.30;0.20;;;;;;;5.00;100.00;101542.38;5039920;28;20512;-49
2021/11/06 03:55:00;;;;;;;0.30;0.20;;;;;;;4.93;100.00;101545.78;5045264;28;20454;-49
2021/11/06 03:57:27;;;;;;;0.30;0.20;;;;;;;4.86;100.00;101556.22;5045569;28;20448;-49
2021/11/06 03:59:54;;;;;;;0.30;0.20;;;;;;;4.83;100.00;101551.81;5042624;28;20864;-51
2021/11/06 04:02:20;;;;;;;0.30;0.20;;;;;;;4.81;100.00;101556.16;5027506;28;20451;-54
2021/11/06 04:04:47;;;;;;;0.30;0.20;;;;;;;4.81;100.00;101561.44;5038880;28;20455;-50
2021/11/06 04:07:14;;;;;;;0.30;0.20;;;;;;;4.64;100.00;101566.41;5044959;28;20515;-50
2021/11/06 04:09:40;;;;;;;0.30;0.20;;;;;;;4.78;100.00;101564.00;5045054;28;20459;-49
2021/11/06 04:12:07;;;;;;;0.30;0.20;;;;;;;4.82;100.00;101570.22;5025943;28;20458;-50
2021/11/06 04:14:34;;;;;;;0.30;0.20;;;;;;;4.62;100.00;101581.31;5038653;28;20499;-49
2021/11/06 04:17:01;;;;;;;0.30;0.20;;;;;;;4.61;100.00;101571.63;5048408;28;20455;-50
2021/11/06 04:19:27;;;;;;;0.30;0.20;;;;;;;4.85;100.00;101581.69;5038507;28;20853;-49
2021/11/06 04:21:54;;;;;;;0.30;0.20;;;;;;;4.81;100.00;101585.13;5048807;28;20462;-50
2021/11/06 04:24:21;;;;;;;0.30;0.20;;;;;;;4.71;100.00;101588.47;5042331;28;20452;-50
2021/11/06 04:26:48;;;;;;;0.30;0.20;;;;;;;4.70;100.00;101578.81;5048541;28;20541;-50
2021/11/06 04:29:15;;;;;;;0.30;0.20;;;;;;;4.68;100.00;101591.06;5048664;28;20532;-50
2021/11/06 04:31:42;;;;;;;0.53;0.53;;;;;;;4.58;100.00;101579.50;5043656;28;20497;-49
2021/11/06 04:34:08;;;;;;;0.30;0.20;;;;;;;4.67;100.00;101576.13;5042160;28;20487;-50
2021/11/06 04:36:35;;;;;;;0.30;0.20;;;;;;;4.66;100.00;101584.88;5047839;28;20447;-50
2021/11/06 04:39:02;;;;;;;0.30;0.20;;;;;;;4.56;100.00;101578.59;5041950;28;20471;-50
2021/11/06 04:41:29;;;;;;;0.30;0.20;;;;;;;4.77;100.00;101580.66;5053669;28;20960;-49
2021/11/06 04:43:56;;;;;;;0.30;0.20;;;;;;;4.69;100.00;101584.94;5042115;28;20474;-50
2021/11/06 04:46:23;;;;;;;0.30;0.10;;;;;;;4.83;100.00;101577.25;5047166;28;20487;-50
2021/11/06 04:48:49;;;;;;;0.30;0.20;;;;;;;4.88;100.00;101576.44;5036960;28;21058;-49
2021/11/06 04:51:16;;;;;;;0.30;0.20;;;;;;;4.83;100.00;101567.59;5046521;28;20475;-50
2021/11/06 04:53:43;;;;;;;0.97;0.50;;;;;;;4.82;100.00;101576.38;5049394;28;20505;-50
2021/11/06 04:56:09;;;;;;;0.30;0.20;;;;;;;4.51;100.00;101569.69;5043773;28;20451;-50
2021/11/06 04:58:36;;;;;;;0.30;0.20;;;;;;;4.50;100.00;101573.19;5041695;28;20499;-50
2021/11/06 05:01:03;;;;;;;0.30;0.30;;;;;;;4.60;100.00;101566.34;5046221;28;20483;-49
2021/11/06 05:03:30;;;;;;;0.30;0.20;;;;;;;4.51;100.00;101576.72;5048599;28;20498;-49
2021/11/06 05:05:56;;;;;;;0.30;0.20;;;;;;;4.29;100.00;101572.84;5041149;28;20452;-49
2021/11/06 05:08:23;;;;;;;0.30;0.20;;;;;;;4.38;100.00;101575.63;5047795;28;20470;-49
2021/11/06 05:10:50;;;;;;;0.30;0.20;;;;;;;4.28;100.00;101584.22;5044561;28;20439;-50
2021/11/06 05:13:16;;;;;;;0.30;0.20;;;;;;;4.22;100.00;101574.47;5023905;28;20523;-49
2021/11/06 05:15:45;;;;;;;0.30;0.30;;;;;;;4.26;100.00;101578.94;5045541;28;20513;-50
2021/11/06 05:18:14;;;;;;;0.30;0.20;;;;;;;4.15;100.00;101584.00;5044646;28;20502;-50
2021/11/06 05:20:42;;;;;;;0.30;0.20;;;;;;;4.16;100.00;101584.88;5043348;28;20528;-49
2021/11/06 05:23:12;;;;;;;0.30;0.20;;;;;;;4.04;100.00;101589.91;5038481;28;20478;-50
2021/11/06 05:25:39;;;;;;;0.30;0.20;;;;;;;3.94;100.00;101587.97;5043749;28;21012;-50
2021/11/06 05:28:06;;;;;;;0.30;0.20;;;;;;;3.94;100.00;101583.59;5045727;28;20495;-50
2021/11/06 05:30:33;;;;;;;0.30;0.20;;;;;;;3.77;100.00;101574.50;5028828;28;20833;-50
2021/11/06 05:33:00;;;;;;;0.30;0.20;;;;;;;4.00;100.00;101586.34;5047197;28;20879;-49
2021/11/06 05:35:26;;;;;;;0.30;0.20;;;;;;;4.11;100.00;101587.44;5039802;28;20542;-50
2021/11/06 05:37:55;;;;;;;0.30;0.20;;;;;;;3.82;100.00;101585.97;5047657;28;20470;-50
2021/11/06 05:40:21;;;;;;;0.30;0.20;;;;;;;3.82;100.00;101585.97;5044997;28;20454;-50
2021/11/06 05:42:48;;;;;;;0.30;0.20;;;;;;;3.76;100.00;101591.13;5047794;28;20956;-50
2021/11/06 05:45:15;;;;;;;0.30;0.10;;;;;;;3.80;100.00;101598.22;5045828;28;20505;-50
2021/11/06 05:47:41;;;;;;;0.63;0.60;;;;;;;3.72;100.00;101590.19;5036961;28;20522;-50
2021/11/06 05:50:10;;;;;;;0.30;0.10;;;;;;;3.84;100.00;101593.06;5046664;28;20516;-50
2021/11/06 05:52:38;;;;;;;0.30;0.20;;;;;;;3.80;100.00;101590.31;5040722;28;20447;-51
2021/11/06 05:55:08;;;;;;;0.30;0.10;;;;;;;3.73;100.00;101583.19;5041324;28;20964;-49
2021/11/06 05:57:35;;;;;;;0.30;0.20;;;;;;;3.76;100.00;101592.00;5031289;28;20473;-49
2021/11/06 06:00:22;;;;;;;0.30;0.17;;;;;;;3.53;100.00;101596.78;5041019;28;20447;-50
2021/11/06 06:02:49;;;;;;;0.30;0.20;;;;;;;3.65;100.00;101597.91;5044084;28;20473;-50
2021/11/06 06:05:16;;;;;;;0.30;0.20;;;;;;;3.81;100.00;101605.25;5040750;28;20451;-50
2021/11/06 06:07:43;;;;;;;0.30;0.20;;;;;;;3.84;100.00;101603.59;5043709;28;20526;-50
2021/11/06 06:10:12;;;;;;;0.30;0.20;;;;;;;3.86;100.00;101604.50;5047037;28;20443;-50
2021/11/06 06:12:40;;;;;;;0.20;0.10;;;;;;;3.93;100.00;101609.88;5040108;28;20479;-50
2021/11/06 06:15:07;;;;;;;0.30;0.20;;;;;;;3.89;100.00;101606.28;5039966;28;20478;-50
2021/11/06 06:17:33;;;;;;;0.40;0.40;;;;;;;3.90;100.00;101615.06;5049933;28;20528;-49
2021/11/06 06:20:00;;;;;;;0.30;0.20;;;;;;;3.76;100.00;101613.06;5036462;28;20452;-50
2021/11/06 06:22:27;;;;;;;0.30;0.20;;;;;;;3.85;100.00;101620.25;5037218;28;20509;-49
2021/11/06 06:24:53;;;;;;;0.30;0.20;;;;;;;3.88;100.00;101625.56;5047393;28;20506;-50
2021/11/06 06:27:20;;;;;;;0.30;0.20;;;;;;;3.90;100.00;101634.38;5041243;28;20483;-50
2021/11/06 06:29:47;;;;;;;0.30;0.13;;;;;;;3.95;100.00;101637.97;5040630;28;20959;-50
2021/11/06 06:32:14;;;;;;;0.30;0.10;;;;;;;3.80;100.00;101633.28;5042021;28;20509;-50
2021/11/06 06:34:40;;;;;;;0.30;0.20;;;;;;;3.84;100.00;101647.41;5046730;28;20498;-50
2021/11/06 06:37:07;;;;;;;0.30;0.20;;;;;;;3.80;100.00;101640.28;5037585;28;20803;-50
2021/11/06 06:39:34;;;;;;;0.30;0.20;;;;;;;3.65;100.00;101646.13;5039681;28;20471;-50
2021/11/06 06:42:01;;;;;;;0.30;0.20;;;;;;;3.81;100.00;101644.69;5040841;28;20467;-50
2021/11/06 06:44:28;;;;;;;0.30;0.20;;;;;;;3.85;100.00;101638.66;5045689;28;20527;-50
2021/11/06 06:46:55;;;;;;;0.30;0.20;;;;;;;3.81;100.00;101632.44;5039852;28;20487;-49
2021/11/06 06:49:22;;;;;;;0.30;0.20;;;;;;;4.66;100.00;101640.16;5046550;28;20814;-50
2021/11/06 06:51:49;;;;;;;0.30;0.20;;;;;;;4.70;100.00;101645.53;5043736;28;20447;-50
2021/11/06 06:54:15;;;;;;;0.30;0.20;;;;;;;5.06;100.00;101646.97;5046178;28;20447;-50
2021/11/06 06:56:44;;;;;;;0.30;0.20;;;;;;;5.20;100.00;101647.19;5036185;28;20865;-50
2021/11/06 06:59:12;;;;;;;0.30;0.20;;;;;;;5.16;100.00;101651.53;5026219;28;20880;-50
2021/11/06 07:01:39;;;;;;;0.47;0.47;;;;;;;5.16;100.00;101648.00;5039485;28;20456;-50
2021/11/06 07:04:06;;;;;;;0.30;0.20;;;;;;;5.13;100.00;101654.13;5026500;28;21019;-50
2021/11/06 07:06:32;;;;;;;0.30;0.20;;;;;;;4.98;100.00;101652.16;5044164;28;20514;-51
2021/11/06 07:09:00;;;;;;;0.30;0.20;;;;;;;5.38;100.00;101657.16;5044745;28;21054;-50
2021/11/06 07:11:27;;;;;;;0.30;0.20;;;;;;;4.86;100.00;101659.84;5033700;28;20474;-49
2021/11/06 07:13:54;;;;;;;0.30;0.20;;;;;;;4.62;100.00;101662.03;5043680;28;20447;-49
2021/11/06 07:16:21;;;;;;;1.03;1.03;;;;;;;4.57;100.00;101658.44;5033700;28;20460;-49
2021/11/06 07:18:48;;;;;;;0.30;0.20;;;;;;;4.54;100.00;101664.56;5024012;28;20521;-49
2021/11/06 07:21:15;;;;;;;0.30;0.20;;;;;;;4.41;100.00;101668.72;5038275;28;21018;-50
2021/11/06 07:23:43;;;;;;;0.27;0.20;;;;;;;4.24;100.00;101670.09;5043517;28;20873;-49
2021/11/06 07:26:10;;;;;;;0.30;0.20;;;;;;;4.27;100.00;101667.56;5032213;28;20447;-49
2021/11/06 07:28:38;;;;;;;0.30;0.20;;;;;;;4.20;100.00;101672.66;5042207;28;20518;-49
2021/11/06 07:31:05;;;;;;;0.30;0.20;;;;;;;4.28;100.00;101674.59;5033685;28;20454;-50
2021/11/06 07:33:31;;;;;;;0.30;0.20;;;;;;;4.21;100.00;101687.59;5037756;28;20451;-50
2021/11/06 07:35:58;;;;;;;0.30;0.20;;;;;;;4.32;100.00;101693.97;5031845;28;20451;-50
2021/11/06 07:38:25;;;;;;;0.30;0.20;;;;;;;4.27;100.00;101685.09;5046402;28;20475;-49
2021/11/06 07:40:51;;;;;;;0.30;0.13;;;;;;;4.44;100.00;101700.34;5046442;28;20489;-49
2021/11/06 07:43:18;;;;;;;3.73;3.50;;;;;;;4.40;100.00;101695.00;5041705;28;20505;-51
2021/11/06 07:45:45;;;;;;;0.30;0.10;;;;;;;4.52;100.00;101694.31;5025067;28;20504;-50
2021/11/06 07:48:11;;;;;;;0.20;0.20;;;;;;;4.78;100.00;101697.44;5045025;28;20521;-50
2021/11/06 07:50:38;;;;;;;0.20;0.20;;;;;;;5.13;100.00;101701.56;5040819;28;20513;-51
2021/11/06 07:53:05;;;;;;;0.30;0.20;;;;;;;5.04;100.00;101697.03;5035982;28;20507;-50
2021/11/06 07:55:32;;;;;;;0.30;0.20;;;;;;;5.41;100.00;101708.16;5038237;28;20515;-50
2021/11/06 07:57:58;;;;;;;0.30;0.20;;;;;;;5.56;100.00;101708.38;5035751;28;20467;-50
2021/11/06 08:00:25;;;;;;;0.30;0.13;;;;;;;5.24;100.00;101704.38;5033719;28;20455;-50
2021/11/06 08:02:52;;;;;;;0.30;0.20;;;;;;;5.52;100.00;101703.94;5048414;28;20500;-51
2021/11/06 08:05:18;;;;;;;0.77;0.77;;;;;;;5.97;100.00;101704.59;5036865;28;20454;-51
2021/11/06 08:07:45;;;;;;;0.30;0.20;;;;;;;5.89;100.00;101701.81;5042901;28;20486;-50
2021/11/06 08:10:12;;;;;;;0.30;0.20;;;;;;;6.31;100.00;101700.63;5034082;28;20513;-50
2021/11/06 08:12:40;;;;;;;2.10;1.90;;;;;;;6.35;100.00;101699.78;5038486;28;20452;-50
2021/11/06 08:15:09;;;;;;;0.30;0.20;;;;;;;6.48;100.00;101699.94;5026189;28;20455;-51
2021/11/06 08:17:36;;;;;;;0.30;0.20;;;;;;;6.17;100.00;101697.81;5035388;28;20523;-50
2021/11/06 08:20:04;;;;;;;0.30;0.20;;;;;;;6.01;100.00;101704.63;5046194;28;20482;-50
2021/11/06 08:22:31;;;;;;;0.30;0.20;;;;;;;6.06;100.00;101699.44;5036384;28;20965;-50
2021/11/06 08:24:58;;;;;;;0.30;0.30;;;;;;;6.09;100.00;101691.56;5035191;28;20447;-50
2021/11/06 08:27:24;;;;;;;0.30;0.20;;;;;;;6.39;100.00;101701.59;5043386;28;20875;-50
2021/11/06 08:29:51;;;;;;;0.30;0.20;;;;;;;6.54;100.00;101693.81;5042087;28;20516;-50
2021/11/06 08:32:18;;;;;;;0.30;0.20;;;;;;;6.73;100.00;101700.19;5036686;28;20967;-50
2021/11/06 08:34:44;;;;;;;0.30;0.20;;;;;;;6.60;100.00;101690.38;5029284;28;20503;-50
2021/11/06 08:37:11;;;;;;;0.30;0.20;;;;;;;6.75;100.00;101688.75;5031471;28;20460;-51
2021/11/06 08:39:38;;;;;;;0.30;0.20;;;;;;;6.96;100.00;101689.81;5045245;28;20493;-50
2021/11/06 08:42:04;;;;;;;0.30;0.20;;;;;;;6.96;100.00;101693.34;5040989;28;20460;-50
2021/11/06 08:44:31;;;;;;;0.30;0.20;;;;;;;7.11;100.00;101696.13;5019048;28;20491;-50
2021/11/06 08:46:58;;;;;;;0.30;0.20;;;;;;;7.13;100.00;101698.81;5033522;28;20447;-51
2021/11/06 08:49:25;;;;;;;0.30;0.23;;;;;;;7.17;100.00;101699.69;5039536;28;20483;-50
2021/11/06 08:51:56;;;;;;;0.30;0.27;;;;;;;7.19;100.00;101704.13;5043138;28;20510;-50
2021/11/06 08:54:23;;;;;;;0.30;0.20;;;;;;;7.31;100.00;101700.69;5031320;28;20510;-50
2021/11/06 08:56:50;;;;;;;0.30;0.20;;;;;;;7.33;100.00;101691.91;5032972;28;21023;-50
2021/11/06 08:59:18;;;;;;;0.30;0.20;;;;;;;7.24;100.00;101699.75;5040337;28;20531;-50
2021/11/06 09:01:46;;;;;;;0.30;0.20;;;;;;;7.15;100.00;101696.16;5034300;28;20996;-51
2021/11/06 09:04:14;;;;;;;0.30;0.20;;;;;;;7.42;100.00;101688.44;5050123;28;20494;-51
2021/11/06 09:06:44;;;;;;;0.30;0.20;;;;;;;7.56;100.00;101683.25;5030375;28;20964;-50
2021/11/06 09:09:14;;;;;;;6.73;1.27;;;;;;;7.60;100.00;101685.00;5035628;28;20541;-51
2021/11/06 09:11:41;;;;;;;0.30;0.20;;;;;;;7.43;100.00;101691.09;5037816;28;20477;-51
2021/11/06 09:14:09;;;;;;;0.30;0.20;;;;;;;7.70;100.00;101681.56;5034912;28;20509;-50
2021/11/06 09:16:37;;;;;;;0.30;0.20;;;;;;;7.79;100.00;101683.34;5032729;28;20511;-50
2021/11/06 09:19:05;;;;;;;0.90;0.90;;;;;;;7.96;100.00;101689.63;5040687;28;21005;-51
2021/11/06 09:21:32;;;;;;;0.30;0.20;;;;;;;7.96;100.00;101685.22;5031653;28;20448;-50
2021/11/06 09:24:03;;;;;;;1.07;0.80;;;;;;;7.90;100.00;101679.00;5038319;28;20861;-50
2021/11/06 09:26:42;;;;;;;0.30;0.20;;;;;;;7.88;100.00;101679.00;5047303;28;21887;-50
2021/11/06 09:29:10;;;;;;;0.30;0.20;;;;;;;7.94;100.00;101688.72;5039679;28;20526;-52
2021/11/06 09:31:38;;;;;;;0.30;0.20;;;;;;;8.19;100.00;101676.47;5033920;28;20459;-52
2021/11/06 09:34:05;;;;;;;0.40;0.20;;;;;;;8.24;100.00;101683.56;5045076;28;20512;-52
2021/11/06 09:36:33;;;;;;;0.30;0.20;;;;;;;8.23;100.00;101687.09;5025407;28;20453;-52
2021/11/06 09:39:02;;;;;;;0.30;0.20;;;;;;;8.21;100.00;101688.81;5024921;28;20475;-51
2021/11/06 09:41:29;;;;;;;0.30;0.20;;;;;;;8.27;100.00;101685.34;5037318;28;20459;-52
2021/11/06 09:43:56;;;;;;;0.30;0.20;;;;;;;8.28;100.00;101684.47;5042367;28;20501;-52
2021/11/06 09:46:23;;;;;;;0.30;0.20;;;;;;;8.28;100.00;101685.34;5052053;28;20891;-52
2021/11/06 09:48:50;;;;;;;0.30;0.20;;;;;;;8.29;100.00;101683.56;5040006;28;20545;-52
2021/11/06 09:51:18;;;;;;;0.30;0.20;;;;;;;8.24;100.00;101688.88;5038320;28;20504;-52
2021/11/06 09:53:49;;;;;;;0.30;0.20;;;;;;;8.19;100.00;101687.94;5026576;28;20452;-51
2021/11/06 09:56:27;;;;;;;0.30;0.20;;;;;;;8.36;100.00;101690.72;5044404;28;20487;-52
2021/11/06 09:58:56;;;;;;;0.40;0.20;;;;;;;8.44;100.00;101694.25;5040024;28;20991;-52
2021/11/06 10:01:23;;;;;;;0.30;0.20;;;;;;;8.47;100.00;101693.38;5042282;28;20460;-52
2021/11/06 10:03:55;;;;;;;0.30;0.20;;;;;;;8.47;100.00;101693.38;5037861;28;20447;-51
2021/11/06 10:06:24;;;;;;;0.40;0.30;;;;;;;8.63;100.00;101695.16;5044841;28;20887;-51
2021/11/06 10:08:53;;;;;;;0.37;0.33;;;;;;;8.78;100.00;101695.22;5050122;28;20487;-52
2021/11/06 10:11:22;;;;;;;0.30;0.20;;;;;;;8.85;100.00;101696.09;5033437;28;20542;-51
2021/11/06 10:13:58;;;;;;;0.30;0.20;;;;;;;8.70;100.00;101690.78;5039214;28;20452;-51
2021/11/06 10:16:31;;;;;;;0.30;0.20;;;;;;;8.87;100.00;101686.38;5045403;28;20915;-51
2021/11/06 10:19:20;;;;;;;0.30;0.20;;;;;;;8.93;100.00;101683.75;5044226;28;20464;-51
2021/11/06 10:22:03;;;;;;;0.30;0.30;;;;;;;8.83;100.00;101674.88;5047112;28;20498;-51
2021/11/06 10:24:46;;;;;;;0.63;0.60;;;;;;;9.03;100.00;101669.56;5046905;28;20989;-51
2021/11/06 10:27:19;;;;;;;0.30;0.20;;;;;;;9.20;100.00;101666.94;5044321;28;20446;-51
2021/11/06 10:30:04;;;;;;;0.73;0.73;;;;;;;9.26;100.00;101658.09;5028932;28;20520;-51
2021/11/06 10:32:36;;;;;;;0.30;0.20;;;;;;;9.13;100.00;101658.09;5039366;28;20995;-51
2021/11/06 10:35:15;;;;;;;0.30;0.20;;;;;;;9.16;100.00;101647.47;5038781;28;20829;-51
2021/11/06 10:37:42;;;;;;;0.30;0.20;;;;;;;9.39;100.00;101647.44;5042827;28;20540;-51
2021/11/06 10:40:10;;;;;;;0.30;0.20;;;;;;;9.58;100.00;101642.97;5032522;28;20912;-51
2021/11/06 10:42:48;;;;;;;0.30;0.20;;;;;;;9.71;100.00;101635.84;5033738;28;20451;-51
2021/11/06 10:45:17;;;;;;;0.33;0.30;;;;;;;9.69;100.00;101622.59;5041770;28;20497;-51
2021/11/06 10:48:06;;;;;;;0.30;0.20;;;;;;;10.01;100.00;101622.47;5038710;28;20526;-51
2021/11/06 10:50:40;;;;;;;0.60;0.60;;;;;;;10.21;100.00;101614.41;5050107;28;20477;-51
2021/11/06 10:53:09;;;;;;;0.33;0.27;;;;;;;10.07;100.00;101611.81;5034388;28;20940;-51
2021/11/06 10:55:38;;;;;;;0.30;0.30;;;;;;;10.05;100.00;101612.72;5041938;28;20455;-51
2021/11/06 10:58:25;;;;;;;0.50;0.50;;;;;;;10.22;100.00;101609.97;5038042;28;20500;-51
2021/11/06 11:01:01;;;;;;;1.27;1.17;;;;;;;10.43;100.00;101601.00;5026927;28;20512;-51
2021/11/06 11:03:31;;;;;;;0.30;0.20;;;;;;;10.61;100.00;101607.06;5039593;28;20486;-50
2021/11/06 11:06:00;;;;;;;0.63;0.63;;;;;;;10.81;100.00;101604.22;5051354;28;20462;-51
2021/11/06 11:08:28;;;;;;;0.30;0.20;;;;;;;10.78;100.00;101601.59;5038759;28;21078;-51
2021/11/06 11:11:06;;;;;;;0.30;0.20;;;;;;;10.88;100.00;101581.13;5043257;28;20866;-51
2021/11/06 11:13:34;;;;;;;0.30;0.20;;;;;;;10.84;100.00;101585.63;5043194;28;20528;-51
2021/11/06 11:16:16;;;;;;;0.30;0.20;;;;;;;10.87;100.00;101582.91;5041125;28;20447;-51
2021/11/06 11:18:51;;;;;;;0.30;0.30;;;;;;;11.02;100.00;101584.56;5038081;28;20498;-51
2021/11/06 11:21:17;;;;;;;0.30;0.20;;;;;;;11.05;100.00;101573.88;5039350;28;20454;-51
2021/11/06 11:23:51;;;;;;;0.30;0.20;;;;;;;11.27;100.00;101575.44;5044569;28;20451;-51
2021/11/06 11:26:24;;;;;;;0.30;0.20;;;;;;;11.30;100.00;101561.19;5043967;28;20491;-51
2021/11/06 11:28:52;;;;;;;0.30;0.20;;;;;;;11.25;100.00;101565.69;5042277;28;20585;-51